sensor_id;sensor_type;location;lat;lon;timestamp;P1;durP1;ratioP1;P2;durP2;ratioP2
3349;SDS011;1688;51.000;13.684;2022-07-24T00:00:42;7.40;;;5.07;;
3349;SDS011;1688;51.000;13.684;2022-07-24T00:03:08;7.30;;;5.67;;
3349;SDS011;1688;51.000;13.684;2022-07-24T00:05:34;9.47;;;6.63;;
3349;SDS011;1688;51.000;13.684;2022-07-24T00:07:59;7.73;;;4.63;;
3349;SDS011;1688;51.000;13.684;2022-07-24T00:10:26;9.70;;;5.07;;
3349;SDS011;1688;51.000;13.684;2022-07-24T00:12:52;8.53;;;5.17;;
3349;SDS011;1688;51.000;13.684;2022-07-24T00:15:18;7.07;;;5.53;;
3349;SDS011;1688;51.000;13.684;2022-07-24T00:17:44;8.93;;;5.87;;
3349;SDS011;1688;51.000;13.684;2022-07-24T00:20:10;7.37;;;5.17;;
3349;SDS011;1688;51.000;13.684;2022-07-24T00:22:36;7.03;;;6.33;;
3349;SDS011;1688;51.000;13.684;2022-07-24T00:25:02;5.60;;;4.33;;
3349;SDS011;1688;51.000;13.684;2022-07-24T00:27:29;6.10;;;4.77;;
3349;SDS011;1688;51.000;13.684;2022-07-24T00:29:55;4.83;;;4.30;;
3349;SDS011;1688;51.000;13.684;2022-07-24T00:32:21;13.60;;;5.20;;
3349;SDS011;1688;51.000;13.684;2022-07-24T00:34:46;5.47;;;4.90;;
3349;SDS011;1688;51.000;13.684;2022-07-24T00:37:12;11.10;;;5.80;;
3349;SDS011;1688;51.000;13.684;2022-07-24T00:39:38;6.93;;;5.40;;
3349;SDS011;1688;51.000;13.684;2022-07-24T00:42:04;7.00;;;3.73;;
3349;SDS011;1688;51.000;13.684;2022-07-24T00:44:30;5.00;;;4.50;;
3349;SDS011;1688;51.000;13.684;2022-07-24T00:46:56;6.33;;;4.37;;
3349;SDS011;1688;51.000;13.684;2022-07-24T00:49:22;6.23;;;4.33;;
3349;SDS011;1688;51.000;13.684;2022-07-24T00:51:49;20.90;;;6.70;;
3349;SDS011;1688;51.000;13.684;2022-07-24T00:54:17;6.37;;;5.00;;
3349;SDS011;1688;51.000;13.684;2022-07-24T00:56:45;4.77;;;4.30;;
3349;SDS011;1688;51.000;13.684;2022-07-24T00:59:12;11.37;;;4.50;;
3349;SDS011;1688;51.000;13.684;2022-07-24T01:01:39;4.50;;;3.97;;
3349;SDS011;1688;51.000;13.684;2022-07-24T01:04:06;5.63;;;4.10;;
3349;SDS011;1688;51.000;13.684;2022-07-24T01:06:32;6.93;;;4.63;;
3349;SDS011;1688;51.000;13.684;2022-07-24T01:08:58;5.17;;;3.90;;
3349;SDS011;1688;51.000;13.684;2022-07-24T01:11:24;5.97;;;4.40;;
3349;SDS011;1688;51.000;13.684;2022-07-24T01:13:50;4.90;;;3.70;;
3349;SDS011;1688;51.000;13.684;2022-07-24T01:16:16;4.80;;;4.30;;
3349;SDS011;1688;51.000;13.684;2022-07-24T01:18:42;4.97;;;3.70;;
3349;SDS011;1688;51.000;13.684;2022-07-24T01:21:08;4.80;;;3.03;;
3349;SDS011;1688;51.000;13.684;2022-07-24T01:23:34;4.50;;;4.07;;
3349;SDS011;1688;51.000;13.684;2022-07-24T01:26:00;5.97;;;3.00;;
3349;SDS011;1688;51.000;13.684;2022-07-24T01:28:27;3.63;;;3.07;;
3349;SDS011;1688;51.000;13.684;2022-07-24T01:30:53;3.43;;;3.10;;
3349;SDS011;1688;51.000;13.684;2022-07-24T01:33:19;5.27;;;3.70;;
3349;SDS011;1688;51.000;13.684;2022-07-24T01:35:45;26.47;;;4.27;;
3349;SDS011;1688;51.000;13.684;2022-07-24T01:38:11;4.00;;;3.00;;
3349;SDS011;1688;51.000;13.684;2022-07-24T01:40:40;5.73;;;3.40;;
3349;SDS011;1688;51.000;13.684;2022-07-24T01:43:06;4.70;;;4.10;;
3349;SDS011;1688;51.000;13.684;2022-07-24T01:45:32;3.90;;;3.60;;
3349;SDS011;1688;51.000;13.684;2022-07-24T01:47:58;4.83;;;3.60;;
3349;SDS011;1688;51.000;13.684;2022-07-24T01:50:24;7.93;;;4.50;;
3349;SDS011;1688;51.000;13.684;2022-07-24T01:52:50;4.00;;;3.27;;
3349;SDS011;1688;51.000;13.684;2022-07-24T01:55:18;4.00;;;3.00;;
3349;SDS011;1688;51.000;13.684;2022-07-24T01:57:44;6.17;;;3.30;;
3349;SDS011;1688;51.000;13.684;2022-07-24T02:00:10;7.03;;;3.30;;
3349;SDS011;1688;51.000;13.684;2022-07-24T02:02:38;4.37;;;3.70;;
3349;SDS011;1688;51.000;13.684;2022-07-24T02:05:07;5.43;;;3.30;;
3349;SDS011;1688;51.000;13.684;2022-07-24T02:07:34;3.77;;;3.00;;
3349;SDS011;1688;51.000;13.684;2022-07-24T02:09:59;5.07;;;4.17;;
3349;SDS011;1688;51.000;13.684;2022-07-24T02:12:26;6.10;;;3.90;;
3349;SDS011;1688;51.000;13.684;2022-07-24T02:14:51;5.13;;;3.17;;
3349;SDS011;1688;51.000;13.684;2022-07-24T02:17:17;3.53;;;3.13;;
3349;SDS011;1688;51.000;13.684;2022-07-24T02:19:43;4.40;;;3.70;;
3349;SDS011;1688;51.000;13.684;2022-07-24T02:22:09;4.53;;;3.57;;
3349;SDS011;1688;51.000;13.684;2022-07-24T02:24:35;6.47;;;4.27;;
3349;SDS011;1688;51.000;13.684;2022-07-24T02:27:01;4.70;;;3.63;;
3349;SDS011;1688;51.000;13.684;2022-07-24T02:29:27;4.30;;;3.90;;
3349;SDS011;1688;51.000;13.684;2022-07-24T02:31:52;3.23;;;2.93;;
3349;SDS011;1688;51.000;13.684;2022-07-24T02:34:18;5.10;;;3.80;;
3349;SDS011;1688;51.000;13.684;2022-07-24T02:36:44;4.23;;;3.83;;
3349;SDS011;1688;51.000;13.684;2022-07-24T02:39:09;14.57;;;3.47;;
3349;SDS011;1688;51.000;13.684;2022-07-24T02:41:35;6.03;;;3.70;;
3349;SDS011;1688;51.000;13.684;2022-07-24T02:44:01;5.80;;;4.47;;
3349;SDS011;1688;51.000;13.684;2022-07-24T02:46:27;3.40;;;3.03;;
3349;SDS011;1688;51.000;13.684;2022-07-24T02:48:53;6.73;;;4.13;;
3349;SDS011;1688;51.000;13.684;2022-07-24T02:51:20;8.83;;;4.20;;
3349;SDS011;1688;51.000;13.684;2022-07-24T02:53:46;5.50;;;4.00;;
3349;SDS011;1688;51.000;13.684;2022-07-24T02:56:11;5.00;;;4.50;;
3349;SDS011;1688;51.000;13.684;2022-07-24T02:58:37;5.80;;;4.00;;
3349;SDS011;1688;51.000;13.684;2022-07-24T03:01:03;7.77;;;5.30;;
3349;SDS011;1688;51.000;13.684;2022-07-24T03:03:29;3.90;;;3.43;;
3349;SDS011;1688;51.000;13.684;2022-07-24T03:05:55;6.60;;;4.50;;
3349;SDS011;1688;51.000;13.684;2022-07-24T03:08:21;8.30;;;4.07;;
3349;SDS011;1688;51.000;13.684;2022-07-24T03:10:46;6.40;;;4.13;;
3349;SDS011;1688;51.000;13.684;2022-07-24T03:13:12;5.23;;;4.83;;
3349;SDS011;1688;51.000;13.684;2022-07-24T03:15:38;3.73;;;3.43;;
3349;SDS011;1688;51.000;13.684;2022-07-24T03:18:04;6.90;;;3.83;;
3349;SDS011;1688;51.000;13.684;2022-07-24T03:20:30;7.67;;;4.37;;
3349;SDS011;1688;51.000;13.684;2022-07-24T03:22:56;7.80;;;4.20;;
3349;SDS011;1688;51.000;13.684;2022-07-24T03:25:22;5.00;;;4.50;;
3349;SDS011;1688;51.000;13.684;2022-07-24T03:27:49;5.47;;;3.80;;
3349;SDS011;1688;51.000;13.684;2022-07-24T03:30:15;5.37;;;4.20;;
3349;SDS011;1688;51.000;13.684;2022-07-24T03:32:42;5.23;;;4.13;;
3349;SDS011;1688;51.000;13.684;2022-07-24T03:35:08;3.93;;;3.57;;
3349;SDS011;1688;51.000;13.684;2022-07-24T03:37:34;4.43;;;4.03;;
3349;SDS011;1688;51.000;13.684;2022-07-24T03:40:00;3.83;;;3.50;;
3349;SDS011;1688;51.000;13.684;2022-07-24T03:42:26;3.97;;;3.60;;
3349;SDS011;1688;51.000;13.684;2022-07-24T03:44:52;4.13;;;3.57;;
3349;SDS011;1688;51.000;13.684;2022-07-24T03:47:18;4.00;;;3.60;;
3349;SDS011;1688;51.000;13.684;2022-07-24T03:49:44;5.40;;;3.90;;
3349;SDS011;1688;51.000;13.684;2022-07-24T03:52:10;4.70;;;4.00;;
3349;SDS011;1688;51.000;13.684;2022-07-24T03:54:36;4.43;;;3.97;;
3349;SDS011;1688;51.000;13.684;2022-07-24T03:57:02;8.47;;;4.40;;
3349;SDS011;1688;51.000;13.684;2022-07-24T03:59:28;6.13;;;3.57;;
3349;SDS011;1688;51.000;13.684;2022-07-24T04:01:54;7.57;;;6.10;;
3349;SDS011;1688;51.000;13.684;2022-07-24T04:04:20;5.83;;;4.70;;
3349;SDS011;1688;51.000;13.684;2022-07-24T04:06:46;5.03;;;3.83;;
3349;SDS011;1688;51.000;13.684;2022-07-24T04:09:11;8.07;;;4.03;;
3349;SDS011;1688;51.000;13.684;2022-07-24T04:11:38;9.90;;;3.03;;
3349;SDS011;1688;51.000;13.684;2022-07-24T04:14:04;5.83;;;3.63;;
3349;SDS011;1688;51.000;13.684;2022-07-24T04:16:30;6.03;;;4.03;;
3349;SDS011;1688;51.000;13.684;2022-07-24T04:18:56;6.60;;;4.17;;
3349;SDS011;1688;51.000;13.684;2022-07-24T04:21:24;3.27;;;2.50;;
3349;SDS011;1688;51.000;13.684;2022-07-24T04:23:50;5.80;;;4.87;;
3349;SDS011;1688;51.000;13.684;2022-07-24T04:26:16;6.23;;;5.67;;
3349;SDS011;1688;51.000;13.684;2022-07-24T04:28:41;6.97;;;5.30;;
3349;SDS011;1688;51.000;13.684;2022-07-24T04:31:07;7.53;;;5.10;;
3349;SDS011;1688;51.000;13.684;2022-07-24T04:33:33;3.90;;;3.40;;
3349;SDS011;1688;51.000;13.684;2022-07-24T04:35:59;12.20;;;5.17;;
3349;SDS011;1688;51.000;13.684;2022-07-24T04:38:25;7.30;;;4.30;;
3349;SDS011;1688;51.000;13.684;2022-07-24T04:40:51;9.03;;;4.70;;
3349;SDS011;1688;51.000;13.684;2022-07-24T04:43:17;3.93;;;3.53;;
3349;SDS011;1688;51.000;13.684;2022-07-24T04:45:42;4.50;;;4.10;;
3349;SDS011;1688;51.000;13.684;2022-07-24T04:48:09;4.40;;;4.00;;
3349;SDS011;1688;51.000;13.684;2022-07-24T04:50:35;6.37;;;4.30;;
3349;SDS011;1688;51.000;13.684;2022-07-24T04:53:03;12.93;;;4.60;;
3349;SDS011;1688;51.000;13.684;2022-07-24T04:55:30;4.80;;;3.70;;
3349;SDS011;1688;51.000;13.684;2022-07-24T04:57:55;6.53;;;4.13;;
3349;SDS011;1688;51.000;13.684;2022-07-24T05:00:21;5.70;;;4.00;;
3349;SDS011;1688;51.000;13.684;2022-07-24T05:02:47;5.70;;;3.40;;
3349;SDS011;1688;51.000;13.684;2022-07-24T05:05:13;8.03;;;4.80;;
3349;SDS011;1688;51.000;13.684;2022-07-24T05:07:39;7.57;;;4.13;;
3349;SDS011;1688;51.000;13.684;2022-07-24T05:10:06;7.40;;;4.90;;
3349;SDS011;1688;51.000;13.684;2022-07-24T05:12:32;6.27;;;4.57;;
3349;SDS011;1688;51.000;13.684;2022-07-24T05:14:58;9.60;;;4.53;;
3349;SDS011;1688;51.000;13.684;2022-07-24T05:17:24;5.40;;;4.10;;
3349;SDS011;1688;51.000;13.684;2022-07-24T05:19:50;4.77;;;4.27;;
3349;SDS011;1688;51.000;13.684;2022-07-24T05:22:16;6.40;;;5.30;;
3349;SDS011;1688;51.000;13.684;2022-07-24T05:24:42;9.50;;;4.93;;
3349;SDS011;1688;51.000;13.684;2022-07-24T05:27:08;6.83;;;4.70;;
3349;SDS011;1688;51.000;13.684;2022-07-24T05:29:34;7.90;;;5.03;;
3349;SDS011;1688;51.000;13.684;2022-07-24T05:32:00;6.83;;;4.37;;
3349;SDS011;1688;51.000;13.684;2022-07-24T05:34:26;11.47;;;6.87;;
3349;SDS011;1688;51.000;13.684;2022-07-24T05:36:53;5.67;;;3.87;;
3349;SDS011;1688;51.000;13.684;2022-07-24T05:39:19;6.83;;;4.40;;
3349;SDS011;1688;51.000;13.684;2022-07-24T05:41:45;6.50;;;4.30;;
3349;SDS011;1688;51.000;13.684;2022-07-24T05:44:11;5.33;;;4.07;;
3349;SDS011;1688;51.000;13.684;2022-07-24T05:46:36;8.10;;;4.30;;
3349;SDS011;1688;51.000;13.684;2022-07-24T05:49:02;5.23;;;4.53;;
3349;SDS011;1688;51.000;13.684;2022-07-24T05:51:28;4.63;;;4.10;;
3349;SDS011;1688;51.000;13.684;2022-07-24T05:53:53;5.77;;;4.60;;
3349;SDS011;1688;51.000;13.684;2022-07-24T05:56:19;5.20;;;3.60;;
3349;SDS011;1688;51.000;13.684;2022-07-24T05:58:45;5.37;;;4.13;;
3349;SDS011;1688;51.000;13.684;2022-07-24T06:01:11;6.80;;;4.10;;
3349;SDS011;1688;51.000;13.684;2022-07-24T06:03:36;5.60;;;4.23;;
3349;SDS011;1688;51.000;13.684;2022-07-24T06:06:03;6.40;;;4.00;;
3349;SDS011;1688;51.000;13.684;2022-07-24T06:08:30;4.80;;;3.53;;
3349;SDS011;1688;51.000;13.684;2022-07-24T06:10:56;4.57;;;3.23;;
3349;SDS011;1688;51.000;13.684;2022-07-24T06:13:21;5.17;;;3.80;;
3349;SDS011;1688;51.000;13.684;2022-07-24T06:15:47;4.70;;;3.50;;
3349;SDS011;1688;51.000;13.684;2022-07-24T06:18:13;6.07;;;3.60;;
3349;SDS011;1688;51.000;13.684;2022-07-24T06:20:39;3.53;;;3.20;;
3349;SDS011;1688;51.000;13.684;2022-07-24T06:23:05;3.90;;;3.50;;
3349;SDS011;1688;51.000;13.684;2022-07-24T06:25:31;4.90;;;3.50;;
3349;SDS011;1688;51.000;13.684;2022-07-24T06:27:58;3.60;;;2.87;;
3349;SDS011;1688;51.000;13.684;2022-07-24T06:30:24;3.90;;;3.53;;
3349;SDS011;1688;51.000;13.684;2022-07-24T06:32:53;3.60;;;3.20;;
3349;SDS011;1688;51.000;13.684;2022-07-24T06:35:21;4.10;;;3.80;;
3349;SDS011;1688;51.000;13.684;2022-07-24T06:37:47;3.43;;;3.10;;
3349;SDS011;1688;51.000;13.684;2022-07-24T06:40:13;3.20;;;3.00;;
3349;SDS011;1688;51.000;13.684;2022-07-24T06:42:40;3.57;;;2.77;;
3349;SDS011;1688;51.000;13.684;2022-07-24T06:45:06;2.57;;;2.10;;
3349;SDS011;1688;51.000;13.684;2022-07-24T06:47:32;6.00;;;3.40;;
3349;SDS011;1688;51.000;13.684;2022-07-24T06:49:58;6.10;;;3.10;;
3349;SDS011;1688;51.000;13.684;2022-07-24T06:52:24;4.60;;;3.00;;
3349;SDS011;1688;51.000;13.684;2022-07-24T06:54:50;2.60;;;2.20;;
3349;SDS011;1688;51.000;13.684;2022-07-24T06:57:16;2.17;;;2.00;;
3349;SDS011;1688;51.000;13.684;2022-07-24T06:59:43;5.00;;;2.40;;
3349;SDS011;1688;51.000;13.684;2022-07-24T07:02:09;2.57;;;2.03;;
3349;SDS011;1688;51.000;13.684;2022-07-24T07:04:35;3.43;;;2.53;;
3349;SDS011;1688;51.000;13.684;2022-07-24T07:07:01;3.47;;;2.37;;
3349;SDS011;1688;51.000;13.684;2022-07-24T07:09:27;4.13;;;1.80;;
3349;SDS011;1688;51.000;13.684;2022-07-24T07:11:53;1.80;;;1.70;;
3349;SDS011;1688;51.000;13.684;2022-07-24T07:14:19;7.23;;;2.27;;
3349;SDS011;1688;51.000;13.684;2022-07-24T07:16:45;1.20;;;0.93;;
3349;SDS011;1688;51.000;13.684;2022-07-24T07:19:13;4.93;;;1.33;;
3349;SDS011;1688;51.000;13.684;2022-07-24T07:21:39;1.20;;;1.10;;
3349;SDS011;1688;51.000;13.684;2022-07-24T07:24:04;3.30;;;2.10;;
3349;SDS011;1688;51.000;13.684;2022-07-24T07:26:31;2.87;;;2.57;;
3349;SDS011;1688;51.000;13.684;2022-07-24T07:28:57;2.07;;;1.93;;
3349;SDS011;1688;51.000;13.684;2022-07-24T07:31:22;2.50;;;1.37;;
3349;SDS011;1688;51.000;13.684;2022-07-24T07:33:49;1.33;;;1.20;;
3349;SDS011;1688;51.000;13.684;2022-07-24T07:36:16;2.17;;;1.97;;
3349;SDS011;1688;51.000;13.684;2022-07-24T07:38:42;4.37;;;2.43;;
3349;SDS011;1688;51.000;13.684;2022-07-24T07:41:08;3.03;;;2.73;;
3349;SDS011;1688;51.000;13.684;2022-07-24T07:43:34;2.23;;;2.03;;
3349;SDS011;1688;51.000;13.684;2022-07-24T07:46:00;3.53;;;2.27;;
3349;SDS011;1688;51.000;13.684;2022-07-24T07:48:25;2.40;;;2.20;;
3349;SDS011;1688;51.000;13.684;2022-07-24T07:50:52;7.50;;;2.87;;
3349;SDS011;1688;51.000;13.684;2022-07-24T07:53:18;2.47;;;2.27;;
3349;SDS011;1688;51.000;13.684;2022-07-24T07:55:44;4.00;;;2.27;;
3349;SDS011;1688;51.000;13.684;2022-07-24T07:58:13;3.77;;;2.20;;
3349;SDS011;1688;51.000;13.684;2022-07-24T08:00:40;5.80;;;2.30;;
3349;SDS011;1688;51.000;13.684;2022-07-24T08:03:06;1.93;;;1.57;;
3349;SDS011;1688;51.000;13.684;2022-07-24T08:05:32;2.50;;;1.90;;
3349;SDS011;1688;51.000;13.684;2022-07-24T08:07:58;1.87;;;1.73;;
3349;SDS011;1688;51.000;13.684;2022-07-24T08:10:24;3.33;;;1.83;;
3349;SDS011;1688;51.000;13.684;2022-07-24T08:12:50;2.40;;;2.20;;
3349;SDS011;1688;51.000;13.684;2022-07-24T08:15:16;1.60;;;1.50;;
3349;SDS011;1688;51.000;13.684;2022-07-24T08:17:42;2.20;;;1.63;;
3349;SDS011;1688;51.000;13.684;2022-07-24T08:20:08;3.60;;;1.77;;
3349;SDS011;1688;51.000;13.684;2022-07-24T08:22:35;2.57;;;1.60;;
3349;SDS011;1688;51.000;13.684;2022-07-24T08:25:00;1.80;;;1.70;;
3349;SDS011;1688;51.000;13.684;2022-07-24T08:27:26;2.63;;;2.00;;
3349;SDS011;1688;51.000;13.684;2022-07-24T08:29:52;2.03;;;1.90;;
3349;SDS011;1688;51.000;13.684;2022-07-24T08:32:19;1.93;;;1.70;;
3349;SDS011;1688;51.000;13.684;2022-07-24T08:34:45;1.43;;;1.33;;
3349;SDS011;1688;51.000;13.684;2022-07-24T08:37:11;2.03;;;1.90;;
3349;SDS011;1688;51.000;13.684;2022-07-24T08:39:37;3.07;;;1.67;;
3349;SDS011;1688;51.000;13.684;2022-07-24T08:42:03;2.03;;;1.93;;
3349;SDS011;1688;51.000;13.684;2022-07-24T08:44:31;2.20;;;2.00;;
3349;SDS011;1688;51.000;13.684;2022-07-24T08:46:58;1.33;;;1.00;;
3349;SDS011;1688;51.000;13.684;2022-07-24T08:49:24;2.23;;;2.03;;
3349;SDS011;1688;51.000;13.684;2022-07-24T08:51:55;3.13;;;1.40;;
3349;SDS011;1688;51.000;13.684;2022-07-24T08:54:25;3.13;;;2.30;;
3349;SDS011;1688;51.000;13.684;2022-07-24T08:56:51;1.67;;;1.57;;
3349;SDS011;1688;51.000;13.684;2022-07-24T08:59:21;2.40;;;2.20;;
3349;SDS011;1688;51.000;13.684;2022-07-24T09:01:48;1.97;;;1.50;;
3349;SDS011;1688;51.000;13.684;2022-07-24T09:07:18;1.90;;;1.70;;
3349;SDS011;1688;51.000;13.684;2022-07-24T09:10:00;2.20;;;2.00;;
3349;SDS011;1688;51.000;13.684;2022-07-24T09:12:32;2.73;;;1.53;;
3349;SDS011;1688;51.000;13.684;2022-07-24T09:15:00;2.80;;;2.00;;
3349;SDS011;1688;51.000;13.684;2022-07-24T09:17:26;2.60;;;1.90;;
3349;SDS011;1688;51.000;13.684;2022-07-24T09:19:54;1.70;;;1.60;;
3349;SDS011;1688;51.000;13.684;2022-07-24T09:25:05;2.37;;;2.23;;
3349;SDS011;1688;51.000;13.684;2022-07-24T09:33:05;4.40;;;2.17;;
3349;SDS011;1688;51.000;13.684;2022-07-24T09:35:45;2.90;;;2.17;;
3349;SDS011;1688;51.000;13.684;2022-07-24T09:38:17;3.17;;;2.30;;
3349;SDS011;1688;51.000;13.684;2022-07-24T09:40:45;2.30;;;2.10;;
3349;SDS011;1688;51.000;13.684;2022-07-24T09:43:31;2.27;;;1.80;;
3349;SDS011;1688;51.000;13.684;2022-07-24T09:46:10;2.27;;;2.03;;
3349;SDS011;1688;51.000;13.684;2022-07-24T09:48:38;14.07;;;2.63;;
3349;SDS011;1688;51.000;13.684;2022-07-24T09:51:05;4.00;;;2.70;;
3349;SDS011;1688;51.000;13.684;2022-07-24T09:53:35;2.10;;;1.90;;
3349;SDS011;1688;51.000;13.684;2022-07-24T09:56:05;4.70;;;1.73;;
3349;SDS011;1688;51.000;13.684;2022-07-24T09:58:37;2.27;;;2.10;;
3349;SDS011;1688;51.000;13.684;2022-07-24T10:01:14;2.57;;;2.37;;
3349;SDS011;1688;51.000;13.684;2022-07-24T10:03:43;2.20;;;2.00;;
3349;SDS011;1688;51.000;13.684;2022-07-24T10:06:11;2.90;;;2.10;;
3349;SDS011;1688;51.000;13.684;2022-07-24T10:08:40;3.13;;;2.70;;
3349;SDS011;1688;51.000;13.684;2022-07-24T10:11:08;1.90;;;1.80;;
3349;SDS011;1688;51.000;13.684;2022-07-24T10:13:34;1.80;;;1.70;;
3349;SDS011;1688;51.000;13.684;2022-07-24T10:18:51;1.83;;;1.73;;
3349;SDS011;1688;51.000;13.684;2022-07-24T10:21:30;1.70;;;1.60;;
3349;SDS011;1688;51.000;13.684;2022-07-24T10:26:50;2.17;;;2.00;;
3349;SDS011;1688;51.000;13.684;2022-07-24T10:29:18;2.33;;;2.00;;
3349;SDS011;1688;51.000;13.684;2022-07-24T10:31:51;2.60;;;2.13;;
3349;SDS011;1688;51.000;13.684;2022-07-24T10:37:22;4.23;;;2.73;;
3349;SDS011;1688;51.000;13.684;2022-07-24T10:45:38;4.30;;;2.43;;
3349;SDS011;1688;51.000;13.684;2022-07-24T10:51:12;3.33;;;2.10;;
3349;SDS011;1688;51.000;13.684;2022-07-24T10:53:53;2.67;;;2.00;;
3349;SDS011;1688;51.000;13.684;2022-07-24T10:59:02;3.00;;;2.03;;
3349;SDS011;1688;51.000;13.684;2022-07-24T11:01:37;2.10;;;1.63;;
3349;SDS011;1688;51.000;13.684;2022-07-24T11:09:13;4.80;;;2.60;;
3349;SDS011;1688;51.000;13.684;2022-07-24T11:14:17;2.57;;;2.37;;
3349;SDS011;1688;51.000;13.684;2022-07-24T11:16:43;5.93;;;2.80;;
3349;SDS011;1688;51.000;13.684;2022-07-24T11:21:39;2.23;;;1.97;;
3349;SDS011;1688;51.000;13.684;2022-07-24T11:27:13;2.73;;;2.50;;
3349;SDS011;1688;51.000;13.684;2022-07-24T11:29:41;2.47;;;2.20;;
3349;SDS011;1688;51.000;13.684;2022-07-24T11:34:43;2.10;;;2.00;;
3349;SDS011;1688;51.000;13.684;2022-07-24T11:37:11;2.00;;;1.90;;
3349;SDS011;1688;51.000;13.684;2022-07-24T11:39:38;2.43;;;2.23;;
3349;SDS011;1688;51.000;13.684;2022-07-24T11:42:09;2.80;;;2.00;;
3349;SDS011;1688;51.000;13.684;2022-07-24T11:47:09;3.37;;;2.20;;
3349;SDS011;1688;51.000;13.684;2022-07-24T11:49:46;2.27;;;1.90;;
3349;SDS011;1688;51.000;13.684;2022-07-24T11:52:19;3.37;;;1.83;;
3349;SDS011;1688;51.000;13.684;2022-07-24T11:54:58;2.43;;;2.23;;
3349;SDS011;1688;51.000;13.684;2022-07-24T11:57:35;2.30;;;1.80;;
3349;SDS011;1688;51.000;13.684;2022-07-24T12:00:03;3.20;;;2.40;;
3349;SDS011;1688;51.000;13.684;2022-07-24T12:02:33;2.23;;;2.03;;
3349;SDS011;1688;51.000;13.684;2022-07-24T12:04:59;2.27;;;2.07;;
3349;SDS011;1688;51.000;13.684;2022-07-24T12:07:25;3.00;;;2.60;;
3349;SDS011;1688;51.000;13.684;2022-07-24T12:12:31;2.67;;;2.13;;
3349;SDS011;1688;51.000;13.684;2022-07-24T12:15:06;2.83;;;2.27;;
3349;SDS011;1688;51.000;13.684;2022-07-24T12:20:25;2.50;;;2.27;;
3349;SDS011;1688;51.000;13.684;2022-07-24T12:23:00;1.60;;;1.50;;
3349;SDS011;1688;51.000;13.684;2022-07-24T12:25:27;3.43;;;2.70;;
3349;SDS011;1688;51.000;13.684;2022-07-24T12:28:01;2.97;;;2.77;;
3349;SDS011;1688;51.000;13.684;2022-07-24T12:30:28;3.97;;;3.03;;
3349;SDS011;1688;51.000;13.684;2022-07-24T12:33:00;2.70;;;2.50;;
3349;SDS011;1688;51.000;13.684;2022-07-24T12:35:26;2.40;;;2.20;;
3349;SDS011;1688;51.000;13.684;2022-07-24T12:37:54;1.80;;;1.70;;
3349;SDS011;1688;51.000;13.684;2022-07-24T12:42:57;3.07;;;2.20;;
3349;SDS011;1688;51.000;13.684;2022-07-24T12:45:41;3.20;;;2.90;;
3349;SDS011;1688;51.000;13.684;2022-07-24T12:48:20;1.90;;;1.80;;
3349;SDS011;1688;51.000;13.684;2022-07-24T12:53:35;2.43;;;2.23;;
3349;SDS011;1688;51.000;13.684;2022-07-24T13:01:22;2.27;;;2.00;;
3349;SDS011;1688;51.000;13.684;2022-07-24T13:04:00;2.30;;;2.10;;
3349;SDS011;1688;51.000;13.684;2022-07-24T13:06:34;5.70;;;2.33;;
3349;SDS011;1688;51.000;13.684;2022-07-24T13:09:05;5.60;;;2.33;;
3349;SDS011;1688;51.000;13.684;2022-07-24T13:11:33;3.27;;;2.40;;
3349;SDS011;1688;51.000;13.684;2022-07-24T13:14:00;2.30;;;2.10;;
3349;SDS011;1688;51.000;13.684;2022-07-24T13:16:28;2.60;;;2.33;;
3349;SDS011;1688;51.000;13.684;2022-07-24T13:18:57;2.70;;;1.83;;
3349;SDS011;1688;51.000;13.684;2022-07-24T13:21:24;2.37;;;2.13;;
3349;SDS011;1688;51.000;13.684;2022-07-24T13:23:50;5.60;;;2.93;;
3349;SDS011;1688;51.000;13.684;2022-07-24T13:26:16;2.70;;;2.50;;
3349;SDS011;1688;51.000;13.684;2022-07-24T13:28:43;6.10;;;2.30;;
3349;SDS011;1688;51.000;13.684;2022-07-24T13:31:09;5.40;;;1.83;;
3349;SDS011;1688;51.000;13.684;2022-07-24T13:33:35;2.43;;;2.23;;
3349;SDS011;1688;51.000;13.684;2022-07-24T13:36:01;4.07;;;2.60;;
3349;SDS011;1688;51.000;13.684;2022-07-24T13:38:27;3.40;;;2.40;;
3349;SDS011;1688;51.000;13.684;2022-07-24T13:40:52;2.13;;;2.03;;
3349;SDS011;1688;51.000;13.684;2022-07-24T13:43:18;2.73;;;1.97;;
3349;SDS011;1688;51.000;13.684;2022-07-24T13:45:44;2.20;;;1.97;;
3349;SDS011;1688;51.000;13.684;2022-07-24T13:48:10;2.30;;;1.90;;
3349;SDS011;1688;51.000;13.684;2022-07-24T13:50:35;5.40;;;2.30;;
3349;SDS011;1688;51.000;13.684;2022-07-24T13:53:01;2.53;;;2.30;;
3349;SDS011;1688;51.000;13.684;2022-07-24T13:55:27;8.70;;;2.37;;
3349;SDS011;1688;51.000;13.684;2022-07-24T13:57:53;5.03;;;2.30;;
3349;SDS011;1688;51.000;13.684;2022-07-24T14:00:19;3.43;;;2.57;;
3349;SDS011;1688;51.000;13.684;2022-07-24T14:02:45;3.10;;;2.40;;
3349;SDS011;1688;51.000;13.684;2022-07-24T14:05:10;2.63;;;2.50;;
3349;SDS011;1688;51.000;13.684;2022-07-24T14:07:36;2.60;;;2.40;;
3349;SDS011;1688;51.000;13.684;2022-07-24T14:10:02;5.67;;;3.00;;
3349;SDS011;1688;51.000;13.684;2022-07-24T14:12:30;2.63;;;2.43;;
3349;SDS011;1688;51.000;13.684;2022-07-24T14:14:58;1.73;;;1.63;;
3349;SDS011;1688;51.000;13.684;2022-07-24T14:17:24;3.50;;;2.53;;
3349;SDS011;1688;51.000;13.684;2022-07-24T14:19:50;2.23;;;2.10;;
3349;SDS011;1688;51.000;13.684;2022-07-24T14:22:15;2.90;;;2.33;;
3349;SDS011;1688;51.000;13.684;2022-07-24T14:24:41;2.93;;;2.40;;
3349;SDS011;1688;51.000;13.684;2022-07-24T14:27:07;3.17;;;2.27;;
3349;SDS011;1688;51.000;13.684;2022-07-24T14:29:33;2.37;;;2.10;;
3349;SDS011;1688;51.000;13.684;2022-07-24T14:31:58;3.57;;;2.30;;
3349;SDS011;1688;51.000;13.684;2022-07-24T14:34:24;2.37;;;2.17;;
3349;SDS011;1688;51.000;13.684;2022-07-24T14:36:50;2.80;;;2.33;;
3349;SDS011;1688;51.000;13.684;2022-07-24T14:39:16;2.07;;;1.97;;
3349;SDS011;1688;51.000;13.684;2022-07-24T14:41:42;4.10;;;2.30;;
3349;SDS011;1688;51.000;13.684;2022-07-24T14:44:08;2.20;;;2.00;;
3349;SDS011;1688;51.000;13.684;2022-07-24T14:46:34;4.23;;;2.57;;
3349;SDS011;1688;51.000;13.684;2022-07-24T14:49:00;3.50;;;2.03;;
3349;SDS011;1688;51.000;13.684;2022-07-24T14:51:26;1.90;;;1.80;;
3349;SDS011;1688;51.000;13.684;2022-07-24T14:53:51;4.30;;;2.30;;
3349;SDS011;1688;51.000;13.684;2022-07-24T14:56:17;2.50;;;2.30;;
3349;SDS011;1688;51.000;13.684;2022-07-24T14:58:43;2.73;;;1.87;;
3349;SDS011;1688;51.000;13.684;2022-07-24T15:01:08;2.73;;;2.37;;
3349;SDS011;1688;51.000;13.684;2022-07-24T15:03:34;2.03;;;1.93;;
3349;SDS011;1688;51.000;13.684;2022-07-24T15:06:00;3.53;;;2.57;;
3349;SDS011;1688;51.000;13.684;2022-07-24T15:08:26;2.30;;;2.10;;
3349;SDS011;1688;51.000;13.684;2022-07-24T15:10:52;2.40;;;2.20;;
3349;SDS011;1688;51.000;13.684;2022-07-24T15:13:17;3.63;;;2.00;;
3349;SDS011;1688;51.000;13.684;2022-07-24T15:15:43;1.50;;;1.40;;
3349;SDS011;1688;51.000;13.684;2022-07-24T15:18:09;2.20;;;1.97;;
3349;SDS011;1688;51.000;13.684;2022-07-24T15:20:34;2.10;;;1.90;;
3349;SDS011;1688;51.000;13.684;2022-07-24T15:23:00;2.37;;;2.17;;
3349;SDS011;1688;51.000;13.684;2022-07-24T15:25:26;3.03;;;2.40;;
3349;SDS011;1688;51.000;13.684;2022-07-24T15:27:52;2.17;;;2.07;;
3349;SDS011;1688;51.000;13.684;2022-07-24T15:30:19;1.83;;;1.73;;
3349;SDS011;1688;51.000;13.684;2022-07-24T15:32:45;1.97;;;1.67;;
3349;SDS011;1688;51.000;13.684;2022-07-24T15:35:11;2.70;;;2.13;;
3349;SDS011;1688;51.000;13.684;2022-07-24T15:37:37;2.17;;;1.97;;
3349;SDS011;1688;51.000;13.684;2022-07-24T15:40:03;2.47;;;2.03;;
3349;SDS011;1688;51.000;13.684;2022-07-24T15:42:29;1.80;;;1.70;;
3349;SDS011;1688;51.000;13.684;2022-07-24T15:44:55;2.50;;;1.83;;
3349;SDS011;1688;51.000;13.684;2022-07-24T15:47:21;2.43;;;2.23;;
3349;SDS011;1688;51.000;13.684;2022-07-24T15:49:47;2.20;;;2.10;;
3349;SDS011;1688;51.000;13.684;2022-07-24T15:52:12;3.20;;;2.63;;
3349;SDS011;1688;51.000;13.684;2022-07-24T15:54:38;2.03;;;1.80;;
3349;SDS011;1688;51.000;13.684;2022-07-24T15:57:04;13.53;;;2.20;;
3349;SDS011;1688;51.000;13.684;2022-07-24T15:59:29;1.77;;;1.67;;
3349;SDS011;1688;51.000;13.684;2022-07-24T16:01:55;4.90;;;2.20;;
3349;SDS011;1688;51.000;13.684;2022-07-24T16:04:21;2.47;;;2.20;;